Time;durP1;ratioP1;P1;durP2;ratioP2;P2;SDS_P1;SDS_P2;PMS_P1;PMS_P2;Temp;Humidity;BMP_temperature;BMP_pressure;BME280_temperature;BME280_humidity;BME280_pressure;Samples;Min_cycle;Max_cycle;Signal;HPM_P1;HPM_P2
2022/08/24 00:00:14;;;;;;;0.10;0.10;;;21.30;99.90;;;;;;4985767;28;21187;-71
2022/08/24 00:02:40;;;;;;;0.28;0.28;;;21.30;99.90;;;;;;4984177;28;20058;-70
2022/08/24 00:05:07;;;;;;;0.32;0.32;;;21.20;99.90;;;;;;4987516;28;20042;-70
2022/08/24 00:07:33;;;;;;;0.10;0.10;;;21.20;99.90;;;;;;4984875;28;20057;-71
2022/08/24 00:10:00;;;;;;;3.40;0.93;;;21.10;99.90;;;;;;4984202;28;20176;-71
2022/08/24 00:12:26;;;;;;;0.32;0.32;;;21.10;99.90;;;;;;4989936;28;20117;-71
2022/08/24 00:14:52;;;;;;;0.10;0.05;;;21.10;99.90;;;;;;4999977;28;20042;-70
2022/08/24 00:17:19;;;;;;;0.17;0.17;;;21.10;99.90;;;;;;5006136;28;20400;-71
2022/08/24 00:19:45;;;;;;;0.30;0.30;;;21.00;99.90;;;;;;5004351;28;20544;-71
2022/08/24 00:22:10;;;;;;;0.20;0.13;;;21.00;99.90;;;;;;5001102;28;20046;-70
2022/08/24 00:24:36;;;;;;;0.10;0.10;;;20.90;99.90;;;;;;4993597;28;20054;-70
2022/08/24 00:27:02;;;;;;;0.00;0.00;;;20.90;99.90;;;;;;5000410;28;20073;-70
2022/08/24 00:29:27;;;;;;;0.08;0.08;;;20.90;99.90;;;;;;4999596;28;20034;-71
2022/08/24 00:31:53;;;;;;;0.00;0.00;;;20.90;99.90;;;;;;4998838;28;20474;-71
2022/08/24 00:34:18;;;;;;;0.08;0.08;;;20.80;99.90;;;;;;5005919;28;20161;-71
2022/08/24 00:36:45;;;;;;;0.00;0.00;;;20.80;99.90;;;;;;5009287;28;20065;-71
2022/08/24 00:39:11;;;;;;;0.00;0.00;;;20.70;99.90;;;;;;4997289;28;20050;-71
2022/08/24 00:41:46;;;;;;;0.00;0.00;;;20.70;99.90;;;;;;5006829;28;20041;-71
2022/08/24 00:44:13;;;;;;;0.13;0.13;;;20.70;99.90;;;;;;5000945;28;20125;-70
2022/08/24 00:46:46;;;;;;;0.57;0.28;;;20.70;99.90;;;;;;4995597;28;20073;-70
2022/08/24 00:49:44;;;;;;;0.20;0.20;;;20.70;99.90;;;;;;4997334;28;20495;-70
2022/08/24 00:52:16;;;;;;;0.00;0.00;;;20.70;99.90;;;;;;4988184;28;20122;-70
2022/08/24 00:54:46;;;;;;;0.08;0.05;;;20.60;99.90;;;;;;4994447;28;20096;-70
2022/08/24 00:57:15;;;;;;;0.85;0.35;;;20.60;99.90;;;;;;4994701;28;20092;-70
2022/08/24 00:59:50;;;;;;;0.10;0.10;;;20.50;99.90;;;;;;4995770;28;20108;-70
2022/08/24 01:02:20;;;;;;;0.00;0.00;;;20.50;99.90;;;;;;5004674;28;20552;-70
2022/08/24 01:04:58;;;;;;;0.15;0.10;;;20.50;99.90;;;;;;4998214;28;20497;-70
2022/08/24 01:07:27;;;;;;;0.10;0.10;;;20.50;99.90;;;;;;5005784;28;20511;-70
2022/08/24 01:09:56;;;;;;;0.30;0.30;;;20.40;99.90;;;;;;4992078;28;20046;-70
2022/08/24 01:12:24;;;;;;;0.00;0.00;;;20.40;99.90;;;;;;4994464;28;20374;-70
2022/08/24 01:14:49;;;;;;;0.00;0.00;;;20.40;99.90;;;;;;5004460;28;20164;-70
2022/08/24 01:20:04;;;;;;;0.43;0.43;;;20.30;99.90;;;;;;5004896;28;20045;-70
2022/08/24 01:22:39;;;;;;;0.28;0.28;;;20.40;99.90;;;;;;4999618;28;20038;-70
2022/08/24 01:25:05;;;;;;;1.52;0.95;;;20.30;99.90;;;;;;4992442;28;20046;-70
2022/08/24 01:27:32;;;;;;;0.10;0.10;;;20.20;99.90;;;;;;5001732;28;20113;-70
2022/08/24 01:30:00;;;;;;;0.00;0.00;;;20.30;99.90;;;;;;4993050;28;20578;-71
2022/08/24 01:32:26;;;;;;;0.00;0.00;;;20.30;99.90;;;;;;5006222;28;20048;-70
2022/08/24 01:34:53;;;;;;;0.08;0.08;;;20.20;99.90;;;;;;4995870;28;20061;-70
2022/08/24 01:37:19;;;;;;;0.20;0.20;;;20.20;99.90;;;;;;4995186;28;20378;-70
2022/08/24 01:39:47;;;;;;;0.00;0.00;;;20.10;99.90;;;;;;5006684;28;20046;-70
2022/08/24 01:42:13;;;;;;;0.00;0.00;;;20.10;99.90;;;;;;4998868;28;20528;-70
2022/08/24 01:44:40;;;;;;;0.00;0.00;;;20.00;99.90;;;;;;4999219;28;20042;-70
2022/08/24 01:47:08;;;;;;;0.10;0.10;;;20.10;99.90;;;;;;5006912;28;20084;-70
2022/08/24 01:49:37;;;;;;;0.30;0.30;;;20.00;99.90;;;;;;5006223;28;20049;-71
2022/08/24 01:52:05;;;;;;;0.08;0.05;;;20.00;99.90;;;;;;5002162;28;20045;-70
2022/08/24 01:54:31;;;;;;;0.20;0.20;;;20.00;99.90;;;;;;4991882;28;20521;-70
2022/08/24 01:56:58;;;;;;;1.00;0.90;;;20.00;99.90;;;;;;4991774;28;20085;-70
2022/08/24 01:59:24;;;;;;;0.47;0.47;;;20.00;99.90;;;;;;5006896;28;20627;-70
2022/08/24 02:01:55;;;;;;;0.15;0.15;;;20.00;99.90;;;;;;5009471;28;20082;-70
2022/08/24 02:04:21;;;;;;;0.70;0.40;;;20.00;99.90;;;;;;4993619;28;20074;-70
2022/08/24 02:06:46;;;;;;;0.17;0.17;;;20.00;99.90;;;;;;5003279;28;20046;-70
2022/08/24 02:09:12;;;;;;;1.27;0.45;;;20.00;99.90;;;;;;5007730;28;20050;-70
2022/08/24 02:11:39;;;;;;;1.83;1.05;;;20.00;99.90;;;;;;5004999;28;20043;-70
2022/08/24 02:14:05;;;;;;;0.30;0.30;;;20.00;99.90;;;;;;4998681;28;20042;-70
2022/08/24 02:16:31;;;;;;;0.25;0.25;;;19.90;99.90;;;;;;5003670;28;20042;-70
2022/08/24 02:18:57;;;;;;;2.60;1.67;;;20.00;99.90;;;;;;5007407;28;20056;-70
2022/08/24 02:21:23;;;;;;;0.10;0.10;;;20.00;99.90;;;;;;4996227;28;20045;-70
2022/08/24 02:23:50;;;;;;;0.20;0.20;;;19.90;99.90;;;;;;5003460;28;20200;-70
2022/08/24 02:26:16;;;;;;;0.25;0.25;;;19.90;99.90;;;;;;5010536;28;20037;-71
2022/08/24 02:28:41;;;;;;;0.10;0.10;;;19.90;99.90;;;;;;4997774;28;20414;-70
2022/08/24 02:31:09;;;;;;;0.85;0.80;;;19.80;99.90;;;;;;4999338;28;20042;-70
2022/08/24 02:33:37;;;;;;;1.10;0.98;;;19.80;99.90;;;;;;5002641;28;20034;-70
2022/08/24 02:36:04;;;;;;;0.10;0.10;;;19.90;99.90;;;;;;4996447;28;20104;-70
2022/08/24 02:38:30;;;;;;;0.10;0.10;;;19.90;99.90;;;;;;5001160;28;20038;-71
2022/08/24 02:40:56;;;;;;;0.38;0.35;;;19.80;99.90;;;;;;5004466;28;20529;-70
2022/08/24 02:43:23;;;;;;;0.20;0.20;;;19.80;99.90;;;;;;5003732;28;20469;-70
2022/08/24 02:45:49;;;;;;;0.10;0.10;;;19.80;99.90;;;;;;4992576;28;20125;-70
2022/08/24 02:48:16;;;;;;;2.72;0.35;;;19.70;99.90;;;;;;4999312;28;20061;-71
2022/08/24 02:50:45;;;;;;;0.00;0.00;;;19.70;99.90;;;;;;5003867;28;20418;-71
2022/08/24 02:53:13;;;;;;;0.95;0.68;;;19.70;99.90;;;;;;4998248;28;20524;-70
2022/08/24 02:55:40;;;;;;;0.75;0.57;;;19.60;99.90;;;;;;4998435;28;20065;-70
2022/08/24 02:58:07;;;;;;;0.68;0.68;;;19.70;99.90;;;;;;5004842;28;20061;-70
2022/08/24 03:00:35;;;;;;;0.10;0.10;;;19.70;99.90;;;;;;5008813;28;20524;-70
2022/08/24 03:03:01;;;;;;;0.38;0.38;;;19.60;99.90;;;;;;5009348;28;20410;-70
2022/08/24 03:05:27;;;;;;;1.08;0.98;;;19.70;99.90;;;;;;4998371;28;20137;-70
2022/08/24 03:07:52;;;;;;;1.10;1.00;;;19.60;99.90;;;;;;4998560;28;20064;-70
2022/08/24 03:10:19;;;;;;;0.25;0.25;;;19.70;99.90;;;;;;5003955;28;20049;-70
2022/08/24 03:12:45;;;;;;;0.95;0.38;;;19.70;99.90;;;;;;4999866;28;20152;-70
2022/08/24 03:15:11;;;;;;;0.70;0.65;;;19.70;99.90;;;;;;4996592;28;20121;-70
2022/08/24 03:17:38;;;;;;;0.47;0.47;;;19.70;99.90;;;;;;4994359;28;20046;-70
2022/08/24 03:20:07;;;;;;;0.60;0.60;;;19.60;99.90;;;;;;4986058;28;20041;-71
2022/08/24 03:22:33;;;;;;;0.40;0.30;;;19.70;99.90;;;;;;4990237;28;20140;-70
2022/08/24 03:24:58;;;;;;;0.30;0.30;;;19.70;99.90;;;;;;4995504;28;20572;-70
2022/08/24 03:27:24;;;;;;;1.00;0.88;;;19.70;99.90;;;;;;5000955;28;20053;-70
2022/08/24 03:29:50;;;;;;;1.00;0.57;;;19.80;99.90;;;;;;5008420;28;20053;-70
2022/08/24 03:32:15;;;;;;;0.10;0.10;;;19.80;99.90;;;;;;5007483;28;20049;-70
2022/08/24 03:34:41;;;;;;;0.57;0.57;;;19.70;99.90;;;;;;4993726;28;20042;-70
2022/08/24 03:37:07;;;;;;;0.30;0.30;;;19.70;99.90;;;;;;5005223;28;20099;-70
2022/08/24 03:39:33;;;;;;;0.38;0.38;;;19.70;99.90;;;;;;5009746;28;20042;-70
2022/08/24 03:41:59;;;;;;;0.40;0.40;;;19.70;99.90;;;;;;5004549;28;20088;-70
2022/08/24 03:44:24;;;;;;;1.95;0.93;;;19.70;99.90;;;;;;4989703;28;20085;-71
2022/08/24 03:46:51;;;;;;;1.02;1.00;;;19.80;99.90;;;;;;4990578;28;20038;-71
2022/08/24 03:49:17;;;;;;;1.65;1.00;;;19.70;99.90;;;;;;4991673;28;20218;-70
2022/08/24 03:51:43;;;;;;;3.22;0.60;;;19.70;99.90;;;;;;4996508;28;20038;-71
2022/08/24 03:54:10;;;;;;;0.35;0.35;;;19.70;99.90;;;;;;4997519;28;20038;-69
2022/08/24 03:56:36;;;;;;;0.90;0.52;;;19.60;99.90;;;;;;5007520;28;20053;-69
2022/08/24 03:59:02;;;;;;;0.55;0.35;;;19.70;99.90;;;;;;5003789;28;20491;-69
2022/08/24 04:01:28;;;;;;;0.70;0.70;;;19.60;99.90;;;;;;5002494;28;20442;-69
2022/08/24 04:03:54;;;;;;;1.58;1.13;;;19.60;99.90;;;;;;5000596;28;20049;-69
2022/08/24 04:06:20;;;;;;;0.55;0.43;;;19.60;99.90;;;;;;5007810;28;20042;-70
2022/08/24 04:08:47;;;;;;;0.95;0.50;;;19.60;99.90;;;;;;5003014;28;20033;-70
2022/08/24 04:11:16;;;;;;;1.83;1.15;;;19.60;99.90;;;;;;4996770;28;20715;-69
2022/08/24 04:13:43;;;;;;;0.55;0.55;;;19.60;99.90;;;;;;5003966;28;20057;-69
2022/08/24 04:16:11;;;;;;;0.43;0.43;;;19.50;99.90;;;;;;4997565;28;20038;-70
2022/08/24 04:18:37;;;;;;;0.65;0.40;;;19.50;99.90;;;;;;5004867;28;20056;-70
2022/08/24 04:21:03;;;;;;;0.50;0.28;;;19.50;99.90;;;;;;5005671;28;20042;-70
2022/08/24 04:23:29;;;;;;;0.10;0.10;;;19.50;99.90;;;;;;4995573;28;20042;-71
2022/08/24 04:26:00;;;;;;;0.52;0.25;;;19.40;99.90;;;;;;4996931;28;20168;-70
2022/08/24 04:28:27;;;;;;;0.22;0.22;;;19.40;99.90;;;;;;5001739;28;20045;-70
2022/08/24 04:30:52;;;;;;;0.17;0.17;;;19.40;99.90;;;;;;4998414;28;20144;-71
2022/08/24 04:33:18;;;;;;;2.08;0.98;;;19.40;99.90;;;;;;4997698;28;20074;-71
2022/08/24 04:35:46;;;;;;;0.10;0.10;;;19.30;99.90;;;;;;5008900;28;20195;-71
2022/08/24 04:38:14;;;;;;;1.58;1.48;;;19.20;99.90;;;;;;5004490;28;20046;-71
2022/08/24 04:40:41;;;;;;;5.50;1.15;;;19.20;99.90;;;;;;4998736;28;20739;-70
2022/08/24 04:43:07;;;;;;;2.70;0.60;;;19.10;99.90;;;;;;4996655;28;20046;-71
2022/08/24 04:45:38;;;;;;;0.65;0.65;;;19.10;99.90;;;;;;4995320;28;20042;-71
2022/08/24 04:48:04;;;;;;;0.35;0.35;;;19.10;99.90;;;;;;5002638;28;20058;-71
2022/08/24 04:50:36;;;;;;;2.28;0.60;;;19.20;99.90;;;;;;4998598;28;20037;-71
2022/08/24 04:53:04;;;;;;;0.40;0.40;;;19.20;99.90;;;;;;4994217;28;20046;-71
2022/08/24 04:55:30;;;;;;;0.75;0.75;;;19.20;99.90;;;;;;4999918;28;20401;-71
2022/08/24 04:57:55;;;;;;;1.15;1.05;;;19.30;99.90;;;;;;4992405;28;20058;-71
2022/08/24 05:00:22;;;;;;;0.03;0.03;;;19.30;99.90;;;;;;4999098;28;20038;-71
2022/08/24 05:02:47;;;;;;;0.52;0.52;;;19.30;99.90;;;;;;5006911;28;20049;-71
2022/08/24 05:05:13;;;;;;;0.65;0.55;;;19.30;99.90;;;;;;4997913;28;20044;-71
2022/08/24 05:07:39;;;;;;;2.45;1.20;;;19.40;99.90;;;;;;4998795;28;20049;-71
2022/08/24 05:10:07;;;;;;;0.77;0.60;;;19.30;99.90;;;;;;5008436;28;20046;-71
2022/08/24 05:12:32;;;;;;;0.85;0.85;;;19.40;99.90;;;;;;4996780;28;20056;-71
2022/08/24 05:14:59;;;;;;;1.95;0.65;;;19.40;99.90;;;;;;4998913;28;20050;-71
2022/08/24 05:17:26;;;;;;;0.30;0.30;;;19.30;99.90;;;;;;5004120;28;20030;-71
2022/08/24 05:19:52;;;;;;;0.60;0.60;;;19.40;99.90;;;;;;4988824;28;20065;-71
2022/08/24 05:22:18;;;;;;;1.45;1.35;;;19.40;99.90;;;;;;5005242;28;20534;-70
2022/08/24 05:24:43;;;;;;;0.50;0.50;;;19.50;99.90;;;;;;5007482;28;20053;-71
2022/08/24 05:27:09;;;;;;;0.47;0.47;;;19.60;99.90;;;;;;4995575;28;20076;-71
2022/08/24 05:29:35;;;;;;;0.55;0.52;;;19.60;99.90;;;;;;5008171;28;20061;-71
2022/08/24 05:32:00;;;;;;;5.93;1.55;;;19.60;99.90;;;;;;5006365;28;20038;-71
2022/08/24 05:34:26;;;;;;;1.10;0.80;;;19.60;99.90;;;;;;4989940;28;20082;-71
2022/08/24 05:36:52;;;;;;;0.93;0.68;;;19.70;99.90;;;;;;4992885;28;20054;-71
2022/08/24 05:39:18;;;;;;;0.20;0.15;;;19.80;99.90;;;;;;4991207;28;20052;-71
2022/08/24 05:41:45;;;;;;;0.73;0.50;;;19.80;99.90;;;;;;4994146;28;20042;-71
2022/08/24 05:44:16;;;;;;;1.08;0.68;;;19.80;99.90;;;;;;5006008;28;20129;-71
2022/08/24 05:46:42;;;;;;;0.30;0.30;;;19.90;99.90;;;;;;5001665;28;20056;-71
2022/08/24 05:49:08;;;;;;;0.20;0.20;;;19.90;99.90;;;;;;5008822;28;20042;-71
2022/08/24 05:51:34;;;;;;;0.45;0.45;;;19.90;99.90;;;;;;5008662;28;20042;-71
2022/08/24 05:54:00;;;;;;;0.10;0.10;;;20.00;99.90;;;;;;5000910;28;20050;-71
2022/08/24 05:56:26;;;;;;;2.33;1.55;;;20.10;99.90;;;;;;4990523;28;20486;-71
2022/08/24 05:58:52;;;;;;;0.93;0.85;;;20.10;99.90;;;;;;4992037;28;20060;-71
2022/08/24 06:01:21;;;;;;;0.95;0.90;;;20.20;99.90;;;;;;5002314;28;20062;-71
2022/08/24 06:03:48;;;;;;;0.60;0.60;;;20.20;99.90;;;;;;4999792;28;20046;-71
2022/08/24 06:06:15;;;;;;;0.00;0.00;;;20.30;99.90;;;;;;4997042;28;20049;-71
2022/08/24 06:08:44;;;;;;;0.43;0.43;;;20.40;99.90;;;;;;5009007;28;20045;-71
2022/08/24 06:11:11;;;;;;;0.57;0.57;;;20.40;99.90;;;;;;5004328;28;20117;-71
2022/08/24 06:13:38;;;;;;;0.45;0.43;;;20.40;99.90;;;;;;5006897;28;20038;-71
2022/08/24 06:16:05;;;;;;;3.70;1.35;;;20.40;99.90;;;;;;5004458;28;20061;-71
2022/08/24 06:18:31;;;;;;;0.20;0.20;;;20.40;99.90;;;;;;5004355;28;20053;-70
2022/08/24 06:20:57;;;;;;;0.20;0.20;;;20.40;99.90;;;;;;5003943;28;20418;-70
2022/08/24 06:23:22;;;;;;;0.70;0.70;;;20.50;99.90;;;;;;4990758;28;20081;-70
2022/08/24 06:28:32;;;;;;;0.22;0.22;;;20.60;99.90;;;;;;4993856;28;20050;-71
2022/08/24 06:31:06;;;;;;;0.10;0.10;;;20.70;99.90;;;;;;5003291;28;20046;-70
2022/08/24 06:33:31;;;;;;;0.10;0.10;;;20.70;99.90;;;;;;5003927;28;20577;-70
2022/08/24 06:35:57;;;;;;;0.20;0.20;;;20.80;99.90;;;;;;5005325;28;20125;-71
2022/08/24 06:38:23;;;;;;;0.00;0.00;;;20.80;99.90;;;;;;5008091;28;20074;-71
2022/08/24 06:40:48;;;;;;;3.13;0.22;;;20.90;99.90;;;;;;5002008;28;20045;-71
2022/08/24 06:43:14;;;;;;;0.20;0.20;;;21.00;99.90;;;;;;4996993;28;20044;-71
2022/08/24 06:45:41;;;;;;;0.32;0.32;;;21.00;99.90;;;;;;4990282;28;20039;-71
2022/08/24 06:48:07;;;;;;;0.28;0.28;;;21.10;99.90;;;;;;4990985;28;20131;-71
2022/08/24 06:50:33;;;;;;;0.00;0.00;;;21.10;99.90;;;;;;4994534;28;20050;-71
2022/08/24 06:53:00;;;;;;;0.45;0.45;;;21.20;99.90;;;;;;5001411;28;20057;-71
2022/08/24 06:55:26;;;;;;;0.52;0.52;;;21.20;99.90;;;;;;4990653;28;20077;-70
2022/08/24 06:57:52;;;;;;;0.20;0.20;;;21.30;99.90;;;;;;4994297;28;20061;-70
2022/08/24 07:00:18;;;;;;;0.65;0.65;;;21.30;99.90;;;;;;5002646;28;20042;-71
2022/08/24 07:02:44;;;;;;;0.25;0.25;;;21.40;99.90;;;;;;5009183;28;20508;-71
2022/08/24 07:05:09;;;;;;;1.95;1.05;;;21.50;99.90;;;;;;4992830;28;20077;-71
2022/08/24 07:07:35;;;;;;;1.20;1.13;;;21.50;99.90;;;;;;4998213;28;20041;-72
2022/08/24 07:10:01;;;;;;;0.00;0.00;;;21.60;99.90;;;;;;5005597;28;20049;-71
2022/08/24 07:12:26;;;;;;;0.00;0.00;;;21.60;99.90;;;;;;4995345;28;20049;-71
2022/08/24 07:14:52;;;;;;;0.50;0.50;;;21.70;99.90;;;;;;5008767;28;20038;-71
2022/08/24 07:17:18;;;;;;;0.47;0.38;;;21.80;99.90;;;;;;5010218;28;20052;-71
2022/08/24 07:19:44;;;;;;;0.50;0.50;;;21.80;99.90;;;;;;4999338;28;20070;-71
2022/08/24 07:22:12;;;;;;;0.43;0.40;;;21.80;99.90;;;;;;4993648;28;20053;-71
2022/08/24 07:24:38;;;;;;;0.32;0.32;;;21.90;99.90;;;;;;4989789;28;20179;-71
2022/08/24 07:27:05;;;;;;;0.40;0.38;;;21.90;99.90;;;;;;5003316;28;20050;-71
2022/08/24 07:29:31;;;;;;;0.70;0.60;;;21.90;99.90;;;;;;4988931;28;20057;-72
2022/08/24 07:31:56;;;;;;;0.00;0.00;;;22.00;99.90;;;;;;4989275;28;20042;-71
2022/08/24 07:34:22;;;;;;;0.98;0.63;;;22.10;99.90;;;;;;4992892;28;20116;-72
2022/08/24 07:36:49;;;;;;;0.10;0.10;;;22.10;99.90;;;;;;4995687;28;20069;-71
2022/08/24 07:39:15;;;;;;;0.32;0.32;;;22.20;99.90;;;;;;4996547;28;20054;-71
2022/08/24 07:41:43;;;;;;;0.28;0.28;;;22.20;99.90;;;;;;5003289;28;20553;-72
2022/08/24 07:44:11;;;;;;;0.17;0.17;;;22.20;99.90;;;;;;4989699;28;20062;-72
2022/08/24 07:46:38;;;;;;;0.00;0.00;;;22.30;99.90;;;;;;4988146;28;20066;-72
2022/08/24 07:49:04;;;;;;;0.35;0.35;;;22.30;99.90;;;;;;4990163;28;20449;-72
2022/08/24 07:51:30;;;;;;;0.38;0.38;;;22.40;99.90;;;;;;4988000;28;20080;-72
2022/08/24 07:53:56;;;;;;;0.10;0.10;;;22.50;99.90;;;;;;4989233;28;20077;-72
2022/08/24 07:56:21;;;;;;;2.17;0.40;;;22.50;99.90;;;;;;4988299;28;20042;-72
2022/08/24 07:58:47;;;;;;;0.28;0.25;;;22.60;99.90;;;;;;4987182;28;20050;-72
2022/08/24 08:01:12;;;;;;;0.55;0.43;;;22.70;99.90;;;;;;4988838;28;20050;-72
2022/08/24 08:03:38;;;;;;;0.55;0.50;;;22.70;99.90;;;;;;4989704;28;20141;-72
2022/08/24 08:06:06;;;;;;;0.30;0.30;;;22.70;99.90;;;;;;4989373;28;20050;-72
2022/08/24 08:08:37;;;;;;;0.65;0.65;;;22.80;99.90;;;;;;4988301;28;20038;-72
2022/08/24 08:11:04;;;;;;;0.00;0.00;;;22.80;99.90;;;;;;4989175;28;20504;-71
2022/08/24 08:13:30;;;;;;;0.57;0.57;;;22.90;99.90;;;;;;4989708;28;20050;-72
2022/08/24 08:15:58;;;;;;;0.43;0.43;;;22.90;99.90;;;;;;4989306;28;20053;-72
2022/08/24 08:18:24;;;;;;;0.47;0.47;;;22.90;99.90;;;;;;4988764;28;20454;-71
2022/08/24 08:20:49;;;;;;;0.38;0.38;;;23.00;99.90;;;;;;4994444;28;20125;-72
2022/08/24 08:26:00;;;;;;;0.77;0.77;;;23.10;99.90;;;;;;4989130;28;20057;-72
2022/08/24 08:28:31;;;;;;;0.10;0.10;;;23.20;99.90;;;;;;4988805;28;20054;-71
2022/08/24 08:31:02;;;;;;;0.40;0.40;;;23.30;99.90;;;;;;4988160;28;20074;-72
2022/08/24 08:33:28;;;;;;;0.65;0.63;;;23.20;99.90;;;;;;4995714;28;20089;-71
2022/08/24 08:36:05;;;;;;;0.20;0.20;;;23.30;99.90;;;;;;4988656;28;20046;-72
2022/08/24 08:38:31;;;;;;;0.17;0.17;;;23.40;99.90;;;;;;4993545;28;20049;-71
2022/08/24 08:41:18;;;;;;;0.73;0.73;;;23.50;99.90;;;;;;4988965;28;20042;-72
2022/08/24 08:43:59;;;;;;;1.35;1.15;;;23.60;99.90;;;;;;4987982;28;20066;-72
2022/08/24 08:46:52;;;;;;;3.83;0.70;;;23.60;99.90;;;;;;4989130;28;20049;-72
2022/08/24 08:49:48;;;;;;;0.45;0.20;;;23.60;99.90;;;;;;4986104;28;20496;-72
2022/08/24 08:52:42;;;;;;;0.10;0.10;;;23.70;99.90;;;;;;5003854;28;20070;-72
2022/08/24 08:55:26;;;;;;;0.20;0.20;;;23.70;99.90;;;;;;4994512;28;20108;-72
2022/08/24 08:58:10;;;;;;;0.38;0.38;;;23.80;99.90;;;;;;4991005;28;20149;-72
2022/08/24 09:01:02;;;;;;;0.22;0.22;;;23.90;99.90;;;;;;5008553;28;20053;-72
2022/08/24 09:03:55;;;;;;;2.08;0.63;;;23.90;99.90;;;;;;4986795;28;20125;-72
2022/08/24 09:06:55;;;;;;;0.10;0.10;;;24.00;99.90;;;;;;4969119;28;20054;-72
2022/08/24 09:09:42;;;;;;;0.52;0.52;;;24.10;99.90;;;;;;4974303;28;20465;-72
2022/08/24 09:12:24;;;;;;;0.22;0.22;;;24.60;99.90;;;;;;4991506;28;20069;-72
2022/08/24 09:14:55;;;;;;;1.15;0.57;;;24.90;99.90;;;;;;4992969;28;20163;-72
2022/08/24 09:17:46;;;;;;;0.00;0.00;;;25.60;99.90;;;;;;4991848;28;20125;-72
2022/08/24 09:20:45;;;;;;;0.10;0.10;;;26.30;99.90;;;;;;5006658;28;20038;-72
2022/08/24 09:23:49;;;;;;;0.00;0.00;;;26.80;99.90;;;;;;4994556;28;20054;-72
2022/08/24 09:26:26;;;;;;;2.72;0.75;;;27.40;99.90;;;;;;4993207;28;20371;-72
2022/08/24 09:29:22;;;;;;;0.10;0.10;;;27.80;99.90;;;;;;5000002;28;20042;-72
2022/08/24 09:32:03;;;;;;;0.15;0.15;;;27.80;99.90;;;;;;4992115;28;20057;-71
2022/08/24 09:34:38;;;;;;;0.20;0.15;;;28.20;99.90;;;;;;4991438;28;20371;-72
2022/08/24 09:37:18;;;;;;;0.20;0.15;;;28.30;99.90;;;;;;4991659;28;20050;-72
2022/08/24 09:39:44;;;;;;;1.27;0.52;;;28.50;99.90;;;;;;5000520;28;20494;-72
2022/08/24 09:42:37;;;;;;;0.80;0.45;;;28.30;99.90;;;;;;5000979;28;20047;-72
2022/08/24 09:45:28;;;;;;;0.05;0.05;;;28.70;99.90;;;;;;4992677;28;20046;-72
2022/08/24 09:48:29;;;;;;;0.20;0.20;;;28.60;99.90;;;;;;4992447;28;20050;-73
2022/08/24 09:51:33;;;;;;;0.10;0.10;;;28.80;99.90;;;;;;5000653;28;20080;-73
2022/08/24 09:54:42;;;;;;;0.05;0.05;;;28.40;99.90;;;;;;4994526;28;20046;-72
2022/08/24 09:57:39;;;;;;;0.00;0.00;;;28.50;99.90;;;;;;4992420;28;20042;-73
2022/08/24 10:00:15;;;;;;;0.00;0.00;;;28.90;99.90;;;;;;4993683;28;20069;-72
2022/08/24 10:02:54;;;;;;;0.28;0.28;;;29.10;99.90;;;;;;4992573;28;20062;-72
2022/08/24 10:05:55;;;;;;;0.10;0.10;;;29.10;99.90;;;;;;5001557;28;20034;-72
2022/08/24 10:08:39;;;;;;;0.00;0.00;;;29.00;99.90;;;;;;4988097;28;20120;-72
2022/08/24 10:11:30;;;;;;;0.20;0.20;;;29.10;99.90;;;;;;4998785;28;20055;-73
2022/08/24 10:13:58;;;;;;;2.53;1.35;;;29.10;99.90;;;;;;4996174;28;20078;-72
2022/08/24 10:16:41;;;;;;;0.00;0.00;;;29.20;99.90;;;;;;4991715;28;20072;-72
2022/08/24 10:19:26;;;;;;;0.08;0.08;;;29.30;99.90;;;;;;4990940;28;20073;-72
2022/08/24 10:21:57;;;;;;;0.10;0.10;;;29.30;99.90;;;;;;5004049;28;20045;-72
2022/08/24 10:24:35;;;;;;;1.75;0.20;;;29.30;99.90;;;;;;4992239;28;20054;-72
2022/08/24 10:27:25;;;;;;;0.10;0.10;;;29.30;99.90;;;;;;4994564;28;20077;-72
2022/08/24 10:30:13;;;;;;;0.20;0.20;;;29.30;99.90;;;;;;4990008;28;20046;-71
2022/08/24 10:33:15;;;;;;;0.40;0.40;;;29.10;99.90;;;;;;4990848;28;20498;-72
2022/08/24 10:36:25;;;;;;;0.00;0.00;;;29.00;99.90;;;;;;4994477;28;20127;-72
2022/08/24 10:45:53;;;;;;;0.00;0.00;;;28.90;99.90;;;;;;5006692;28;20096;-73
2022/08/24 10:48:31;;;;;;;0.00;0.00;;;28.80;99.90;;;;;;4989619;28;20055;-72
2022/08/24 10:51:27;;;;;;;0.00;0.00;;;28.80;99.90;;;;;;5002453;28;20043;-72
2022/08/24 10:53:55;;;;;;;0.00;0.00;;;28.90;99.90;;;;;;4990824;28;20054;-73
2022/08/24 10:56:39;;;;;;;0.30;0.10;;;29.00;99.90;;;;;;4989835;28;20050;-73
2022/08/24 10:59:21;;;;;;;0.60;0.10;;;29.00;99.90;;;;;;4990539;28;20070;-72
2022/08/24 11:02:01;;;;;;;0.50;0.50;;;29.20;99.90;;;;;;4990393;28;20132;-73
2022/08/24 11:04:30;;;;;;;0.00;0.00;;;29.30;99.90;;;;;;5005566;28;20053;-73
2022/08/24 11:07:06;;;;;;;0.13;0.13;;;29.40;99.90;;;;;;5006082;28;20033;-73
2022/08/24 11:09:45;;;;;;;0.35;0.35;;;29.40;99.90;;;;;;5009372;28;20054;-73
2022/08/24 11:12:38;;;;;;;1.50;0.73;;;29.30;99.90;;;;;;4997156;28;20074;-73
2022/08/24 11:15:26;;;;;;;0.00;0.00;;;29.30;99.90;;;;;;5006394;28;20489;-73
2022/08/24 11:18:03;;;;;;;0.00;0.00;;;29.30;99.90;;;;;;5009081;28;20390;-73
2022/08/24 11:20:39;;;;;;;0.00;0.00;;;29.20;99.90;;;;;;5001862;28;20512;-74
2022/08/24 11:23:08;;;;;;;0.00;0.00;;;29.30;99.90;;;;;;4997277;28;20140;-74
2022/08/24 11:25:36;;;;;;;0.00;0.00;;;29.50;99.90;;;;;;4992256;28;20130;-74
2022/08/24 11:28:27;;;;;;;0.00;0.00;;;29.70;99.90;;;;;;5006616;28;20053;-73
2022/08/24 11:30:52;;;;;;;0.00;0.00;;;29.60;99.90;;;;;;4989560;28;20458;-74
2022/08/24 11:33:54;;;;;;;0.10;0.10;;;29.70;99.90;;;;;;4989116;28;20121;-74
2022/08/24 11:36:22;;;;;;;0.03;0.03;;;29.90;99.90;;;;;;5001855;28;20148;-75
2022/08/24 11:39:08;;;;;;;0.22;0.22;;;30.20;99.90;;;;;;4998843;28;20038;-75
2022/08/24 11:42:09;;;;;;;0.00;0.00;;;30.10;99.90;;;;;;4993537;28;20505;-74
2022/08/24 11:44:54;;;;;;;0.00;0.00;;;30.10;99.90;;;;;;4975467;28;20092;-74
2022/08/24 11:47:40;;;;;;;1.45;0.75;;;30.40;99.90;;;;;;4989743;28;20486;-74
2022/08/24 11:50:18;;;;;;;0.47;0.35;;;30.20;99.90;;;;;;4993979;28;20084;-74
2022/08/24 11:52:53;;;;;;;0.00;0.00;;;30.60;99.90;;;;;;5009003;28;20052;-73
2022/08/24 11:55:43;;;;;;;0.00;0.00;;;30.70;99.90;;;;;;5001277;28;20073;-74
2022/08/24 11:58:23;;;;;;;0.10;0.10;;;30.60;99.90;;;;;;4989644;28;20086;-74
2022/08/24 12:01:00;;;;;;;9.23;1.55;;;30.60;99.90;;;;;;4989406;28;20050;-74
2022/08/24 12:03:52;;;;;;;0.00;0.00;;;30.90;99.90;;;;;;5003832;28;20053;-74
2022/08/24 12:06:41;;;;;;;0.00;0.00;;;31.00;99.90;;;;;;4990878;28;20401;-74
2022/08/24 12:09:18;;;;;;;0.10;0.10;;;31.20;99.90;;;;;;5007910;28;20410;-74
2022/08/24 12:11:54;;;;;;;0.00;0.00;;;31.40;99.90;;;;;;4992751;28;20046;-75
2022/08/24 12:14:37;;;;;;;0.00;0.00;;;31.20;99.90;;;;;;4988601;28;20125;-74
2022/08/24 12:17:15;;;;;;;0.00;0.00;;;31.30;99.90;;;;;;4988299;28;20553;-73
2022/08/24 12:20:13;;;;;;;0.00;0.00;;;31.50;99.90;;;;;;4991233;28;20053;-74
2022/08/24 12:22:40;;;;;;;0.00;0.00;;;31.60;99.90;;;;;;5007613;28;20053;-74
2022/08/24 12:26:00;;;;;;;0.17;0.17;;;31.80;99.90;;;;;;5008503;28;20058;-74
2022/08/24 12:27:56;;;;;;;0.00;0.00;;;31.90;99.90;;;;;;4989609;28;20054;-74
2022/08/24 12:30:22;;;;;;;0.00;0.00;;;32.00;99.90;;;;;;4987624;28;20058;-75
2022/08/24 12:32:53;;;;;;;0.00;0.00;;;32.10;99.90;;;;;;4989582;28;20093;-74
2022/08/24 12:35:41;;;;;;;0.00;0.00;;;32.30;99.90;;;;;;4990266;28;20460;-74
2022/08/24 12:38:33;;;;;;;0.00;0.00;;;32.30;99.90;;;;;;4995828;28;20498;-74
2022/08/24 12:41:04;;;;;;;0.10;0.10;;;32.70;99.90;;;;;;5008627;28;20058;-74
2022/08/24 12:43:36;;;;;;;0.00;0.00;;;32.50;98.30;;;;;;4986349;28;20160;-74
2022/08/24 12:46:05;;;;;;;0.00;0.00;;;32.50;98.80;;;;;;5008253;28;20044;-73
2022/08/24 12:48:46;;;;;;;0.00;0.00;;;32.40;99.80;;;;;;5008047;28;20100;-74
2022/08/24 12:51:41;;;;;;;0.00;0.00;;;32.70;99.10;;;;;;5007342;28;20111;-75
2022/08/24 12:54:19;;;;;;;0.30;0.30;;;32.60;99.30;;;;;;4998169;28;20604;-75
2022/08/24 12:57:08;;;;;;;0.00;0.00;;;32.80;99.00;;;;;;4987188;28;20093;-75
2022/08/24 12:59:42;;;;;;;0.00;0.00;;;33.00;98.10;;;;;;4988598;28;20506;-73
2022/08/24 13:02:13;;;;;;;0.00;0.00;;;32.90;98.50;;;;;;4994959;28;20545;-74
2022/08/24 13:04:55;;;;;;;1.67;0.70;;;32.90;99.00;;;;;;4987362;28;20081;-74
2022/08/24 13:07:20;;;;;;;0.00;0.00;;;32.80;98.20;;;;;;4988743;28;20178;-73
2022/08/24 13:09:51;;;;;;;0.00;0.00;;;32.90;98.80;;;;;;4987280;28;20066;-74
2022/08/24 13:12:40;;;;;;;0.00;0.00;;;33.40;97.90;;;;;;4987164;28;20054;-73
2022/08/24 13:15:30;;;;;;;0.00;0.00;;;33.30;98.60;;;;;;4992981;28;20069;-73
2022/08/24 13:18:08;;;;;;;0.00;0.00;;;33.30;97.90;;;;;;5002113;28;20046;-74
2022/08/24 13:20:33;;;;;;;0.03;0.00;;;33.60;98.80;;;;;;4997782;28;20104;-74
2022/08/24 13:23:11;;;;;;;0.28;0.25;;;33.70;97.50;;;;;;5007341;28;20046;-73
2022/08/24 13:25:51;;;;;;;0.00;0.00;;;33.50;97.50;;;;;;4993133;28;20065;-74
2022/08/24 13:28:20;;;;;;;0.00;0.00;;;33.70;98.00;;;;;;4994732;28;20049;-74